Terminal Aerodrome Forecast
Issued by NWS

Home | Current Version | Previous Version | Text Only | Print | Product List | Glossary On
Versions: 1 2 3 4 5 6 7 8 9 10 11 12 13 14 15
000
FTPA31 PHFO 232349
TAFHOG
TAF
PHOG 232349Z 2400/2424 04015G23KT P6SM SCT060
     FM240800 04010KT P6SM FEW035 SCT060
     FM242000 04015G21KT P6SM FEW035 SCT060 BKN250=

USA.gov is the U.S. government's official web portal to all federal, state and local government web resources and services.